Airfield :
LOGIN :

Register | Disclaimer

   EN    FR    IT 

 










Legend :    VFR   Marginal VFR   IFR   Intensive IFR   Very Intensive IFR
Visi :
Ceiling :
>= 8 km
>= 3000ft
5 to 8 km
1000 to 3000 ft
1500m to 5 km
500 to 1000 ft
800 to 1500m
200 to 500 ft
< 800m
< 200 ft
Symbols :   Thunderstorms  Fog  Heavy snow  Heavy precipitations  Wind > 20 kt
SIGMETs :     Misc.  Thunderstorms  Icing  Turbulence  Mountain Waves  Volcanic Ashes






- Airport Elevation : 49 ft
- IATA code : SEN


EGMC - Southend

CURRENT METAR :
  • 052050Z 33004KT CAVOK 03/02 Q1045

EXPIRED METARs :
  • 052020Z 35004KT CAVOK 02/01 Q1045
  • 051950Z 31003KT CAVOK 02/01 Q1045
  • 051920Z 32003KT CAVOK 02/M00 Q1045
  • 051850Z 32002KT CAVOK 03/01 Q1045
  • 051820Z 32002KT CAVOK 04/01 Q1045

TAF TAF EGMC
Valid from the 05 at 21:00 until the 06 at 06:00 UTC


052005Z 0521/0606 35004KT CAVOK
PROB30
TEMPO 0521/0602 7000
TEMPO 0602/0606 4000 BR
PROB30
TEMPO 0602/0606 0300 FZFG VV///



MET'MAP, your aeronautical weather chart ! - Copyright ORBIFLY December 2007 - Disclaimer

ORBIFLY MET'MAP TEAM :

Programming & Development : Alexandra Zaïnal
Original concept : Baudouin d'Aumeries
Technical & hardware support : Manuel Goepfert
Assistance : Marc-Olivier Méhu




SOURCES & CREDITS :

   NOAA